Atlantic Kingfisher — CFH8948 — position and weather

sailwx.info

Track history (hours):
 
Tides and Currents Weather Stations Pressure Air Temp Water Temp Dewpoint Dewpoint Depression Visibility Wind Speed Wind Dir Waves Ship Positions

Atlantic Kingfisher

Last reported at 2018-Aug-10 06:45 UTC. Time now 2018-Aug-14 19:29 UTC.
Position N 47°28' W 052°06'.

Length 80 m; draft 6 m.

Type: Tug. MMSI: 316004840.

Date/timePositionNaut miles runAvg speedWind from/ knotsBaromVisibWave heightAir tempDewpointWater temp
2018-Aug-10 06:45N 47°28' W 052°06'310.4
2018-Aug-10 06:28N 47°29' W 052°10'510.4
2018-Aug-10 05:59N 47°30' W 052°17'610.6
2018-Aug-10 05:27N 47°32' W 052°25'510.6
2018-Aug-10 04:57N 47°33' W 052°33'510.4
2018-Aug-10 04:27N 47°34' W 052°41'1 1.9
2018-Aug-10 03:56N 47°34' W 052°42'3 6.3
2018-Aug-10 03:26N 47°34' W 052°37'2 3.9
2018-Aug-10 03:00N 47°34' W 052°35'1 1.3
2018-Aug-10 02:30N 47°34' W 052°34'0 0.9
2018-Aug-10 02:00N 47°33' W 052°34'0 0.5
2018-Aug-10 01:30N 47°34' W 052°34'611.4
2018-Aug-10 01:00N 47°34' W 052°42'0 0.2
2018-Aug-10 00:30N 47°34' W 052°42'0 0.0
2018-Aug-10 00:01N 47°34' W 052°42'0 0.0
2018-Aug-09 23:22N 47°34' W 052°42'0 0.0
2018-Aug-09 16:26N 47°34' W 052°42'0 0.4
2018-Aug-09 15:55N 47°34' W 052°42'0 0.0
2018-Aug-09 15:25N 47°34' W 052°42'0 0.0
2018-Aug-09 14:56N 47°34' W 052°42'0 0.0
2018-Aug-09 14:29N 47°34' W 052°42'0 0.0
2018-Aug-09 13:59N 47°34' W 052°42'0 0.0
2018-Aug-09 13:30N 47°34' W 052°42'0 0.0
2018-Aug-09 13:00N 47°34' W 052°42'0 0.0
2018-Aug-09 12:30N 47°34' W 052°42'0 0.0
2018-Aug-09 11:55N 47°34' W 052°42'0 0.0
2018-Aug-09 11:22N 47°34' W 052°42'0 0.0
2018-Aug-09 10:41N 47°34' W 052°42'0 0.0
2018-Aug-09 10:23N 47°34' W 052°42'0 0.0
2018-Aug-09 05:59N 47°34' W 052°42'0 0.0
2018-Aug-09 05:23N 47°34' W 052°42'0 0.0
2018-Aug-09 04:59N 47°34' W 052°42'0 0.0
2018-Aug-09 04:24N 47°34' W 052°42'0 0.0
2018-Aug-09 04:00N 47°34' W 052°42'0 0.0
2018-Aug-09 03:30N 47°34' W 052°42'0 0.0
2018-Aug-09 02:55N 47°34' W 052°42'0 0.0
2018-Aug-09 02:25N 47°34' W 052°42'0 0.0
2018-Aug-09 01:52N 47°34' W 052°42'0 0.0
2018-Aug-09 01:26N 47°34' W 052°42'0 0.0
2018-Aug-09 00:56N 47°34' W 052°42'0 0.0
2018-Aug-09 00:29N 47°34' W 052°42'0 0.9
2018-Aug-08 23:58N 47°33' W 052°43'0 0.0
2018-Aug-08 23:28N 47°33' W 052°43'0 0.0
2018-Aug-08 22:50N 47°33' W 052°43'0 0.0
2018-Aug-08 20:48N 47°33' W 052°43'0 0.0
2018-Aug-08 20:14N 47°33' W 052°43'0 0.0
2018-Aug-08 19:57N 47°33' W 052°43'0 0.0
2018-Aug-08 19:29N 47°33' W 052°43'0 0.0
2018-Aug-08 18:59N 47°33' W 052°43'0 0.0
2018-Aug-08 18:27N 47°33' W 052°43'0 0.0
2018-Aug-08 18:00N 47°33' W 052°43'0 0.0
2018-Aug-08 17:29N 47°33' W 052°43'0 0.0
2018-Aug-08 16:49N 47°33' W 052°43'0 0.0
2018-Aug-08 16:29N 47°33' W 052°43'0 0.0
2018-Aug-08 15:59N 47°33' W 052°43'0 0.0
2018-Aug-08 15:29N 47°33' W 052°43'0 0.0
2018-Aug-08 14:58N 47°33' W 052°43'0 0.0
2018-Aug-08 14:27N 47°33' W 052°43'0 0.0
2018-Aug-08 13:55N 47°33' W 052°43'0 0.0
2018-Aug-08 13:30N 47°33' W 052°43'0 0.0
2018-Aug-08 13:00N 47°33' W 052°43'0 0.0
2018-Aug-08 12:24N 47°33' W 052°43'0 0.0
2018-Aug-08 11:49N 47°33' W 052°43'0 0.0
2018-Aug-08 11:29N 47°33' W 052°43'0 0.0
2018-Aug-08 10:59N 47°33' W 052°43'0 0.0
2018-Aug-08 10:29N 47°33' W 052°43'0 0.0
2018-Aug-08 09:59N 47°33' W 052°43'0 0.0
2018-Aug-08 09:29N 47°33' W 052°43'0 0.0
2018-Aug-08 08:59N 47°33' W 052°43'0 0.0
2018-Aug-08 08:29N 47°33' W 052°43'0 0.0
2018-Aug-08 07:59N 47°33' W 052°43'0 0.0
2018-Aug-08 07:29N 47°33' W 052°43'0 0.0
2018-Aug-08 06:59N 47°33' W 052°43'0 0.0
2018-Aug-08 06:29N 47°33' W 052°43'0 0.0
2018-Aug-08 05:59N 47°33' W 052°43'0 0.0
2018-Aug-08 05:29N 47°33' W 052°43'0 0.0
2018-Aug-08 04:58N 47°33' W 052°43'0 0.0
2018-Aug-08 04:28N 47°33' W 052°43'0 0.0
2018-Aug-08 03:58N 47°33' W 052°43'0 0.0
2018-Aug-08 03:28N 47°33' W 052°43'0 0.0
2018-Aug-08 02:58N 47°33' W 052°43'0 0.0
2018-Aug-08 02:28N 47°33' W 052°43'0 0.0
2018-Aug-08 01:58N 47°33' W 052°43'0 0.0
2018-Aug-08 01:28N 47°33' W 052°43'0 0.0
2018-Aug-08 00:58N 47°33' W 052°43'0 0.0
2018-Aug-08 00:27N 47°33' W 052°43'0 0.0
2018-Aug-07 23:57N 47°33' W 052°43'0 0.0
2018-Aug-07 23:27N 47°33' W 052°43'0 0.0
2018-Aug-07 22:56N 47°33' W 052°43'0 0.0
2018-Aug-07 22:26N 47°33' W 052°43'0 0.0
2018-Aug-07 21:55N 47°33' W 052°43'0 0.0
2018-Aug-07 21:30N 47°33' W 052°43'0 0.0
2018-Aug-07 20:59N 47°33' W 052°43'0 0.0
2018-Aug-07 20:27N 47°33' W 052°43'0 0.0
2018-Aug-07 19:56N 47°33' W 052°43'0 0.0
2018-Aug-07 19:26N 47°33' W 052°43'0 0.0
2018-Aug-07 18:56N 47°33' W 052°43'0 0.0
2018-Aug-07 18:26N 47°33' W 052°43'0 0.0
2018-Aug-07 18:00N 47°33' W 052°43'0 0.0
2018-Aug-07 17:29N 47°33' W 052°43'0 0.0
2018-Aug-07 16:59N 47°33' W 052°43'0 0.0
2018-Aug-07 16:28N 47°33' W 052°43'0 0.0
2018-Aug-07 15:57N 47°33' W 052°43'0 0.0
2018-Aug-07 15:26N 47°33' W 052°43'0 0.0
2018-Aug-07 15:00N 47°33' W 052°43'0 0.0
2018-Aug-07 14:30N 47°33' W 052°43'0 0.0
2018-Aug-07 14:00N 47°33' W 052°43'0 0.0
2018-Aug-07 13:29N 47°33' W 052°43'0 0.0
2018-Aug-07 12:57N 47°33' W 052°43'0 0.0
2018-Aug-07 12:26N 47°33' W 052°43'0 0.0
2018-Aug-07 11:57N 47°33' W 052°43'0 0.0
2018-Aug-07 11:27N 47°33' W 052°43'0 0.0
2018-Aug-07 10:56N 47°33' W 052°43'0 0.0
2018-Aug-07 10:26N 47°33' W 052°43'0 0.0
2018-Aug-07 10:00N 47°33' W 052°43'0 0.0
2018-Aug-07 09:30N 47°33' W 052°43'0 0.0
2018-Aug-07 08:59N 47°33' W 052°43'0 0.0
2018-Aug-07 08:29N 47°33' W 052°43'0 0.0
2018-Aug-07 07:59N 47°33' W 052°43'0 0.0
2018-Aug-07 07:28N 47°33' W 052°43'0 0.0
2018-Aug-07 06:58N 47°33' W 052°43'0 0.0
2018-Aug-07 06:28N 47°33' W 052°43'0 0.0
2018-Aug-07 05:58N 47°33' W 052°43'0 0.0
2018-Aug-07 05:27N 47°33' W 052°43'0 0.0
2018-Aug-07 04:57N 47°33' W 052°43'0 0.0
2018-Aug-07 04:26N 47°33' W 052°43'0 0.0
2018-Aug-07 03:56N 47°33' W 052°43'0 0.0
2018-Aug-07 03:30N 47°33' W 052°43'0 0.0
2018-Aug-07 03:00N 47°33' W 052°43'0 0.0
2018-Aug-07 02:30N 47°33' W 052°43'0 0.0
2018-Aug-07 01:59N 47°33' W 052°43'0 0.0
2018-Aug-07 01:29N 47°33' W 052°43'0 0.0
2018-Aug-07 00:58N 47°33' W 052°43'0 0.0
2018-Aug-07 00:23N 47°33' W 052°43'0 0.0
2018-Aug-06 23:57N 47°33' W 052°43'0 0.0
2018-Aug-06 23:27N 47°33' W 052°43'0 0.0
2018-Aug-06 22:56N 47°33' W 052°43'0 0.0
2018-Aug-06 22:26N 47°33' W 052°43'0 0.0
2018-Aug-06 22:00N 47°33' W 052°43'0 0.0
2018-Aug-06 21:30N 47°33' W 052°43'0 0.0
2018-Aug-06 20:58N 47°33' W 052°43'0 0.0
2018-Aug-06 20:27N 47°33' W 052°43'0 0.0
2018-Aug-06 19:57N 47°33' W 052°43'0 0.0
2018-Aug-06 19:29N 47°33' W 052°43'0 0.0
2018-Aug-06 18:57N 47°33' W 052°43'0 0.0
2018-Aug-06 18:28N 47°33' W 052°43'0 0.0
2018-Aug-06 17:55N 47°33' W 052°43'0 0.0
2018-Aug-06 17:30N 47°33' W 052°43'0 0.0
2018-Aug-06 16:58N 47°33' W 052°43'0 0.0
2018-Aug-06 16:27N 47°33' W 052°43'0 0.0
2018-Aug-06 15:56N 47°33' W 052°43'0 0.0
2018-Aug-06 15:30N 47°33' W 052°43'0 0.0
2018-Aug-06 14:59N 47°33' W 052°43'0 0.0
2018-Aug-06 14:28N 47°33' W 052°43'0 0.0
2018-Aug-06 13:57N 47°33' W 052°43'0 0.0
2018-Aug-06 13:27N 47°33' W 052°43'0 0.0
2018-Aug-06 12:56N 47°33' W 052°43'0 0.0
2018-Aug-06 12:25N 47°33' W 052°43'0 0.0
2018-Aug-06 11:59N 47°33' W 052°43'0 0.0
2018-Aug-06 11:24N 47°33' W 052°43'0 0.0
2018-Aug-06 10:59N 47°33' W 052°43'0 0.0
2018-Aug-06 10:27N 47°33' W 052°43'0 0.0
2018-Aug-06 10:00N 47°33' W 052°43'0 0.0
2018-Aug-06 09:29N 47°33' W 052°43'0 0.0
2018-Aug-06 09:01N 47°33' W 052°43'0 0.0
2018-Aug-06 08:30N 47°33' W 052°43'0 0.0
2018-Aug-06 07:59N 47°33' W 052°43'0 0.0
2018-Aug-06 07:19N 47°33' W 052°43'0 0.0
2018-Aug-06 06:58N 47°33' W 052°43'0 0.0
2018-Aug-06 06:27N 47°33' W 052°43'0 0.0
2018-Aug-06 05:57N 47°33' W 052°43'0 0.0
2018-Aug-06 05:26N 47°33' W 052°43'0 0.0
2018-Aug-06 05:00N 47°33' W 052°43'0 0.0
2018-Aug-06 04:30N 47°33' W 052°43'0 0.0
2018-Aug-06 03:59N 47°33' W 052°43'0 0.0
2018-Aug-06 03:28N 47°33' W 052°43'0 0.0
2018-Aug-06 02:58N 47°33' W 052°43'0 0.0
2018-Aug-06 02:27N 47°33' W 052°43'0 0.0
2018-Aug-06 01:57N 47°33' W 052°43'0 0.0
2018-Aug-06 01:27N 47°33' W 052°43'0 0.0
2018-Aug-06 00:56N 47°33' W 052°43'0 0.0
2018-Aug-06 00:26N 47°33' W 052°43'0 0.0
2018-Aug-06 00:00N 47°33' W 052°43'0 0.0
2018-Aug-05 23:30N 47°33' W 052°43'0 0.0
2018-Aug-05 22:59N 47°33' W 052°43'0 0.0
2018-Aug-05 22:29N 47°33' W 052°43'0 0.0
2018-Aug-05 21:58N 47°33' W 052°43'0 0.0
2018-Aug-05 21:17N 47°33' W 052°43'0 0.0
2018-Aug-05 20:57N 47°33' W 052°43'0 0.0
2018-Aug-05 20:27N 47°33' W 052°43'0 0.0
2018-Aug-05 19:57N 47°33' W 052°43'0 0.0
2018-Aug-05 19:26N 47°33' W 052°43'0 0.0
2018-Aug-05 19:00N 47°33' W 052°43'0 0.0
2018-Aug-05 18:30N 47°33' W 052°43'0 0.0
2018-Aug-05 18:00N 47°33' W 052°43'0 0.0
2018-Aug-05 17:29N 47°33' W 052°43'0 0.0
2018-Aug-05 16:58N 47°33' W 052°43'0 0.0
2018-Aug-05 16:28N 47°33' W 052°43'0 0.0
2018-Aug-05 15:57N 47°33' W 052°43'0 0.0
2018-Aug-05 15:26N 47°33' W 052°43'0 0.0
2018-Aug-05 14:56N 47°33' W 052°43'0 0.0
2018-Aug-05 13:58N 47°33' W 052°43'0 0.0
2018-Aug-05 13:28N 47°33' W 052°43'0 0.0
2018-Aug-05 12:57N 47°33' W 052°43'0 0.0
2018-Aug-05 12:27N 47°33' W 052°43'0 0.0
2018-Aug-05 11:56N 47°33' W 052°43'0 0.0
2018-Aug-05 11:26N 47°33' W 052°43'0 0.0
2018-Aug-05 11:00N 47°33' W 052°43'0 0.0
2018-Aug-05 10:30N 47°33' W 052°43'0 0.0
2018-Aug-05 10:00N 47°33' W 052°43'0 0.0
2018-Aug-05 09:30N 47°33' W 052°43'0 0.0
2018-Aug-05 08:58N 47°33' W 052°43'0 0.0
2018-Aug-05 08:28N 47°33' W 052°43'0 0.0
2018-Aug-05 07:57N 47°33' W 052°43'0 0.0
2018-Aug-05 07:26N 47°33' W 052°43'0 0.0
2018-Aug-05 07:00N 47°33' W 052°43'0 0.0
2018-Aug-05 06:30N 47°33' W 052°43'0 0.0
2018-Aug-05 06:00N 47°33' W 052°43'0 0.0
2018-Aug-05 05:29N 47°33' W 052°43'0 0.0
2018-Aug-05 04:59N 47°33' W 052°43'0 0.0
2018-Aug-05 04:29N 47°33' W 052°43'0 0.0
2018-Aug-05 03:58N 47°33' W 052°43'0 0.0
2018-Aug-05 03:27N 47°33' W 052°43'0 0.0
2018-Aug-05 02:57N 47°33' W 052°43'0 0.0
2018-Aug-05 02:27N 47°33' W 052°43'0 0.0
2018-Aug-05 01:56N 47°33' W 052°43'0 0.0
2018-Aug-05 01:26N 47°33' W 052°43'0 0.0
2018-Aug-05 01:00N 47°33' W 052°43'0 0.0
2018-Aug-05 00:30N 47°33' W 052°43'0 0.0
2018-Aug-04 23:59N 47°33' W 052°43'0 0.0
2018-Aug-04 23:29N 47°33' W 052°43'0 0.0
2018-Aug-04 22:59N 47°33' W 052°43'0 0.0
2018-Aug-04 22:28N 47°33' W 052°43'0 0.0
2018-Aug-04 21:58N 47°33' W 052°43'0 0.0
2018-Aug-04 21:27N 47°33' W 052°43'0 0.0
2018-Aug-04 20:56N 47°33' W 052°43'0 0.0
2018-Aug-04 20:26N 47°33' W 052°43'0 0.0
2018-Aug-04 20:00N 47°33' W 052°43'0 0.0
2018-Aug-04 19:28N 47°33' W 052°43'0 0.0
2018-Aug-04 18:56N 47°33' W 052°43'0 0.0
2018-Aug-04 18:29N 47°33' W 052°43'0 0.0
2018-Aug-04 17:57N 47°33' W 052°43'0 0.0
2018-Aug-04 17:16N 47°33' W 052°43'0 0.0
2018-Aug-04 16:56N 47°33' W 052°43'0 0.0
2018-Aug-04 16:30N 47°33' W 052°43'0 0.0
2018-Aug-04 16:00N 47°33' W 052°43'0 0.0
2018-Aug-04 15:29N 47°33' W 052°43'0 0.0
2018-Aug-04 14:58N 47°33' W 052°43'0 0.0
2018-Aug-04 14:26N 47°33' W 052°43'0 0.0
2018-Aug-04 14:00N 47°33' W 052°43'0 0.0
2018-Aug-04 13:30N 47°33' W 052°43'0 0.0
2018-Aug-04 12:58N 47°33' W 052°43'0 0.0
2018-Aug-04 12:24N 47°33' W 052°43'0 0.0
2018-Aug-04 11:56N 47°33' W 052°43'0 0.0
2018-Aug-04 11:24N 47°33' W 052°43'0 0.0
2018-Aug-04 10:59N 47°33' W 052°43'0 0.0
2018-Aug-04 10:28N 47°33' W 052°43'0 0.0
2018-Aug-04 09:57N 47°33' W 052°43'0 0.0
2018-Aug-04 09:26N 47°33' W 052°43'0 0.0
2018-Aug-04 09:00N 47°33' W 052°43'0 0.0
2018-Aug-04 08:29N 47°33' W 052°43'0 0.0
2018-Aug-04 07:59N 47°33' W 052°43'0 0.0
2018-Aug-04 07:29N 47°33' W 052°43'0 0.0
2018-Aug-04 06:58N 47°33' W 052°43'0 0.0
2018-Aug-04 06:28N 47°33' W 052°43'0 0.0
2018-Aug-04 05:57N 47°33' W 052°43'0 0.0
2018-Aug-04 05:27N 47°33' W 052°43'0 0.0
2018-Aug-04 04:57N 47°33' W 052°43'0 0.0
2018-Aug-04 04:26N 47°33' W 052°43'0 0.0
2018-Aug-04 03:56N 47°33' W 052°43'0 0.0
2018-Aug-04 03:30N 47°33' W 052°43'0 0.0
2018-Aug-04 03:00N 47°33' W 052°43'0 0.0
2018-Aug-04 02:30N 47°33' W 052°43'0 0.0
2018-Aug-04 01:59N 47°33' W 052°43'0 0.0
2018-Aug-04 01:29N 47°33' W 052°43'0 0.0
2018-Aug-04 00:58N 47°33' W 052°43'0 0.0
2018-Aug-04 00:27N 47°33' W 052°43'0 0.0
2018-Aug-03 23:57N 47°33' W 052°43'0 0.0
2018-Aug-03 23:26N 47°33' W 052°43'0 0.0
2018-Aug-03 22:56N 47°33' W 052°43'0 0.0
2018-Aug-03 22:30N 47°33' W 052°43'0 0.0
2018-Aug-03 22:00N 47°33' W 052°43'0 0.0
2018-Aug-03 21:29N 47°33' W 052°43'0 0.0
2018-Aug-03 20:59N 47°33' W 052°43'0 0.0
2018-Aug-03 20:28N 47°33' W 052°43'0 0.0
2018-Aug-03 19:58N 47°33' W 052°43'0 0.0
2018-Aug-03 19:27N 47°33' W 052°43'0 0.0
2018-Aug-03 18:56N 47°33' W 052°43'0 0.0
2018-Aug-03 18:26N 47°33' W 052°43'0 0.0
2018-Aug-03 18:00N 47°33' W 052°43'0 0.0
2018-Aug-03 17:29N 47°33' W 052°43'0 0.0
2018-Aug-03 16:59N 47°33' W 052°43'0 0.0
2018-Aug-03 16:29N 47°33' W 052°43'0 0.0
2018-Aug-03 15:58N 47°33' W 052°43'0 0.0
2018-Aug-03 15:28N 47°33' W 052°43'0 0.0
2018-Aug-03 14:57N 47°33' W 052°43'0 0.0
2018-Aug-03 14:27N 47°33' W 052°43'0 0.0
2018-Aug-03 13:57N 47°33' W 052°43'0 0.0
2018-Aug-03 13:26N 47°33' W 052°43'0 0.0
2018-Aug-03 13:00N 47°33' W 052°43'0 0.0
2018-Aug-03 12:29N 47°33' W 052°43'0 0.0
2018-Aug-03 11:59N 47°33' W 052°43'0 0.0
2018-Aug-03 11:29N 47°33' W 052°43'0 0.0
2018-Aug-03 10:58N 47°33' W 052°43'0 0.0
2018-Aug-03 10:27N 47°33' W 052°43'0 0.0
2018-Aug-03 09:57N 47°33' W 052°43'0 0.0
2018-Aug-03 09:27N 47°33' W 052°43'0 0.0
2018-Aug-03 08:57N 47°33' W 052°43'0 0.0
2018-Aug-03 08:26N 47°33' W 052°43'0 0.0
2018-Aug-03 07:56N 47°33' W 052°43'0 0.0
2018-Aug-03 07:26N 47°33' W 052°43'0 0.0
2018-Aug-03 07:00N 47°33' W 052°43'0 0.0
2018-Aug-03 06:30N 47°33' W 052°43'0 0.0
2018-Aug-03 06:00N 47°33' W 052°43'0 0.0
2018-Aug-03 05:29N 47°33' W 052°43'0 0.0
2018-Aug-03 04:59N 47°33' W 052°43'0 0.0
2018-Aug-03 04:29N 47°33' W 052°43'0 0.0
2018-Aug-03 03:57N 47°33' W 052°43'0 0.0
2018-Aug-03 03:26N 47°33' W 052°43'0 0.0
2018-Aug-03 02:59N 47°33' W 052°43'0 0.0
2018-Aug-03 02:28N 47°33' W 052°43'0 0.0
2018-Aug-03 01:56N 47°33' W 052°43'0 0.0
2018-Aug-03 01:30N 47°33' W 052°43'0 0.0
2018-Aug-03 00:59N 47°33' W 052°43'0 0.0
2018-Aug-03 00:30N 47°33' W 052°43'0 0.0
2018-Aug-02 23:56N 47°33' W 052°43'0 0.0
2018-Aug-02 23:23N 47°33' W 052°43'0 0.0
2018-Aug-02 22:56N 47°33' W 052°43'0 0.0
2018-Aug-02 22:27N 47°33' W 052°43'0 0.0
2018-Aug-02 21:59N 47°33' W 052°43'0 0.0
2018-Aug-02 21:28N 47°33' W 052°43'0 0.0
2018-Aug-02 20:56N 47°33' W 052°43'0 0.0
2018-Aug-02 20:27N 47°33' W 052°43'0 0.0
2018-Aug-02 19:57N 47°33' W 052°43'0 0.0
2018-Aug-02 19:26N 47°33' W 052°43'0 0.0
2018-Aug-02 18:55N 47°33' W 052°43'0 0.0
2018-Aug-02 18:20N 47°33' W 052°43'0 0.0
2018-Aug-02 17:51N 47°33' W 052°43'0 0.0
2018-Aug-02 17:27N 47°33' W 052°43'0 0.0
2018-Aug-02 16:58N 47°33' W 052°43'0 0.0
2018-Aug-02 16:30N 47°33' W 052°43'0 0.0
2018-Aug-02 15:59N 47°33' W 052°43'0 0.0
2018-Aug-02 15:26N 47°33' W 052°43'0 0.0
2018-Aug-02 15:00N 47°33' W 052°43'0 0.0
2018-Aug-02 14:28N 47°33' W 052°43'0 0.0
2018-Aug-02 13:56N 47°33' W 052°43'0 0.0
2018-Aug-02 13:30N 47°33' W 052°43'0 0.0
2018-Aug-02 12:58N 47°33' W 052°43'0 0.0
2018-Aug-02 12:27N 47°33' W 052°43'0 0.0
2018-Aug-02 11:57N 47°33' W 052°43'0 0.0
2018-Aug-02 11:27N 47°33' W 052°43'0 0.0
2018-Aug-02 10:56N 47°33' W 052°43'0 0.0
2018-Aug-02 10:26N 47°33' W 052°43'0 0.0
2018-Aug-02 10:00N 47°33' W 052°43'0 0.0
2018-Aug-02 09:29N 47°33' W 052°43'0 0.0
2018-Aug-02 08:59N 47°33' W 052°43'0 0.0
2018-Aug-02 08:29N 47°33' W 052°43'0 0.0
2018-Aug-02 07:59N 47°33' W 052°43'0 0.0
2018-Aug-02 07:29N 47°33' W 052°43'0 0.0
2018-Aug-02 06:59N 47°33' W 052°43'0 0.0
2018-Aug-02 06:29N 47°33' W 052°43'0 0.0
2018-Aug-02 05:59N 47°33' W 052°43'0 0.0
2018-Aug-02 05:29N 47°33' W 052°43'0 0.0
2018-Aug-02 04:59N 47°33' W 052°43'0 0.0
2018-Aug-02 04:29N 47°33' W 052°43'0 0.0
2018-Aug-02 03:59N 47°33' W 052°43'0 0.0
2018-Aug-02 03:28N 47°33' W 052°43'0 0.0
2018-Aug-02 02:58N 47°33' W 052°43'0 0.0
2018-Aug-02 02:28N 47°33' W 052°43'0 0.0
2018-Aug-02 01:58N 47°33' W 052°43'0 0.0
2018-Aug-02 01:28N 47°33' W 052°43'0 0.0
2018-Aug-02 00:58N 47°33' W 052°43'0 0.0
2018-Aug-02 00:27N 47°33' W 052°43'0 0.0
2018-Aug-01 23:57N 47°33' W 052°43'0 0.0
2018-Aug-01 23:26N 47°33' W 052°43'0 0.0
2018-Aug-01 22:56N 47°33' W 052°43'0 0.0
2018-Aug-01 22:30N 47°33' W 052°43'0 0.0
2018-Aug-01 22:00N 47°33' W 052°43'0 0.0
2018-Aug-01 21:30N 47°33' W 052°43'0 0.0
2018-Aug-01 21:00N 47°33' W 052°43'0 0.0
2018-Aug-01 20:29N 47°33' W 052°43'0 0.0
2018-Aug-01 19:59N 47°33' W 052°43'0 0.0
2018-Aug-01 19:28N 47°33' W 052°43'0 0.0
2018-Aug-01 18:58N 47°33' W 052°43'0 0.0
2018-Aug-01 18:27N 47°33' W 052°43'0 0.0
2018-Aug-01 17:56N 47°33' W 052°43'0 0.0
2018-Aug-01 17:26N 47°33' W 052°43'0 0.0
2018-Aug-01 17:00N 47°33' W 052°43'0 0.0
2018-Aug-01 16:30N 47°33' W 052°43'0 0.0
2018-Aug-01 16:00N 47°33' W 052°43'0 0.0
2018-Aug-01 15:30N 47°33' W 052°43'0 0.0
2018-Aug-01 14:59N 47°33' W 052°43'0 0.0
2018-Aug-01 13:58N 47°33' W 052°43'0 0.0
2018-Aug-01 13:27N 47°33' W 052°43'0 0.0
2018-Aug-01 12:57N 47°33' W 052°43'0 0.3
2018-Aug-01 12:28N 47°33' W 052°43'0 0.1
2018-Aug-01 11:56N 47°33' W 052°43'0 0.0
2018-Aug-01 11:26N 47°33' W 052°43'0 0.0
2018-Aug-01 11:00N 47°33' W 052°43'0 0.0
2018-Aug-01 10:30N 47°33' W 052°43'0 0.0
2018-Aug-01 10:00N 47°33' W 052°43'0 0.0
2018-Aug-01 09:30N 47°33' W 052°43'0 0.0
2018-Aug-01 09:00N 47°33' W 052°43'0 0.0
2018-Aug-01 08:30N 47°33' W 052°43'0 0.0
2018-Aug-01 07:59N 47°33' W 052°43'0 0.0
2018-Aug-01 07:29N 47°33' W 052°43'0 0.0
2018-Aug-01 06:59N 47°33' W 052°43'0 0.0
2018-Aug-01 06:29N 47°33' W 052°43'0 0.0
2018-Aug-01 05:59N 47°33' W 052°43'0 0.0
2018-Aug-01 05:28N 47°33' W 052°43'0 0.0
2018-Aug-01 04:57N 47°33' W 052°43'0 0.0
2018-Aug-01 04:27N 47°33' W 052°43'0 0.0
2018-Aug-01 03:57N 47°33' W 052°43'0 0.0
2018-Aug-01 03:26N 47°33' W 052°43'0 0.0
2018-Aug-01 02:56N 47°33' W 052°43'0 0.0
2018-Aug-01 02:26N 47°33' W 052°43'0 0.0
2018-Aug-01 01:56N 47°33' W 052°43'0 0.0
2018-Aug-01 01:26N 47°33' W 052°43'0 0.0
2018-Aug-01 00:56N 47°33' W 052°43'0 0.2
2018-Jul-31 22:28N 47°34' W 052°42'0 0.1
2018-Jul-31 21:58N 47°34' W 052°42'0 0.0
2018-Jul-31 21:28N 47°34' W 052°42'0 0.0
2018-Jul-31 20:58N 47°34' W 052°42'0 0.0
2018-Jul-31 20:26N 47°34' W 052°42'0 0.0
2018-Jul-31 19:56N 47°34' W 052°42'0 0.0
2018-Jul-31 19:30N 47°34' W 052°42'0 0.0
2018-Jul-31 19:00N 47°34' W 052°42'0 0.0
2018-Jul-31 18:24N 47°34' W 052°42'0 0.0
2018-Jul-31 17:59N 47°34' W 052°42'0 0.0
2018-Jul-31 17:28N 47°34' W 052°42'0 0.6
2018-Jul-31 16:57N 47°34' W 052°42'0 0.0
2018-Jul-31 16:23N 47°34' W 052°42'0 0.0
2018-Jul-31 15:47N 47°34' W 052°42'0 0.0
2018-Jul-31 15:15N 47°34' W 052°42'0 0.0
2018-Jul-31 15:00N 47°34' W 052°42'0 0.0
2018-Jul-31 14:29N 47°34' W 052°42'0 0.0
2018-Jul-31 10:58N 47°34' W 052°42'4 8.7
2018-Jul-31 10:27N 47°33' W 052°35'810.8
2018-Jul-31 09:42N 47°31' W 052°24'  
Track history (hours):
 
Tides and Currents Weather Stations Pressure Air Temp Water Temp Dewpoint Dewpoint Depression Visibility Wind Speed Wind Dir Waves Ship Positions

Atlantic Kingfisher

Last reported at 2018-Aug-10 06:45 UTC. Time now 2018-Aug-14 19:29 UTC.
Position N 47°28' W 052°06'.

Length 80 m; draft 6 m.

Type: Tug. MMSI: 316004840.

Date/timePositionNaut miles runAvg speedWind from/ knotsBaromVisibWave heightAir tempDewpointWater temp
2018-Aug-10 06:45N 47°28' W 052°06'310.4
2018-Aug-10 06:28N 47°29' W 052°10'510.4
2018-Aug-10 05:59N 47°30' W 052°17'610.6
2018-Aug-10 05:27N 47°32' W 052°25'510.6
2018-Aug-10 04:57N 47°33' W 052°33'510.4
2018-Aug-10 04:27N 47°34' W 052°41'1 1.9
2018-Aug-10 03:56N 47°34' W 052°42'3 6.3
2018-Aug-10 03:26N 47°34' W 052°37'2 3.9
2018-Aug-10 03:00N 47°34' W 052°35'1 1.3
2018-Aug-10 02:30N 47°34' W 052°34'0 0.9
2018-Aug-10 02:00N 47°33' W 052°34'0 0.5
2018-Aug-10 01:30N 47°34' W 052°34'611.4
2018-Aug-10 01:00N 47°34' W 052°42'0 0.2
2018-Aug-10 00:30N 47°34' W 052°42'0 0.0
2018-Aug-10 00:01N 47°34' W 052°42'0 0.0
2018-Aug-09 23:22N 47°34' W 052°42'0 0.0
2018-Aug-09 16:26N 47°34' W 052°42'0 0.4
2018-Aug-09 15:55N 47°34' W 052°42'0 0.0
2018-Aug-09 15:25N 47°34' W 052°42'0 0.0
2018-Aug-09 14:56N 47°34' W 052°42'0 0.0
2018-Aug-09 14:29N 47°34' W 052°42'0 0.0
2018-Aug-09 13:59N 47°34' W 052°42'0 0.0
2018-Aug-09 13:30N 47°34' W 052°42'0 0.0
2018-Aug-09 13:00N 47°34' W 052°42'0 0.0
2018-Aug-09 12:30N 47°34' W 052°42'0 0.0
2018-Aug-09 11:55N 47°34' W 052°42'0 0.0
2018-Aug-09 11:22N 47°34' W 052°42'0 0.0
2018-Aug-09 10:41N 47°34' W 052°42'0 0.0
2018-Aug-09 10:23N 47°34' W 052°42'0 0.0
2018-Aug-09 05:59N 47°34' W 052°42'0 0.0
2018-Aug-09 05:23N 47°34' W 052°42'0 0.0
2018-Aug-09 04:59N 47°34' W 052°42'0 0.0
2018-Aug-09 04:24N 47°34' W 052°42'0 0.0
2018-Aug-09 04:00N 47°34' W 052°42'0 0.0
2018-Aug-09 03:30N 47°34' W 052°42'0 0.0
2018-Aug-09 02:55N 47°34' W 052°42'0 0.0
2018-Aug-09 02:25N 47°34' W 052°42'0 0.0
2018-Aug-09 01:52N 47°34' W 052°42'0 0.0
2018-Aug-09 01:26N 47°34' W 052°42'0 0.0
2018-Aug-09 00:56N 47°34' W 052°42'0 0.0
2018-Aug-09 00:29N 47°34' W 052°42'0 0.9
2018-Aug-08 23:58N 47°33' W 052°43'0 0.0
2018-Aug-08 23:28N 47°33' W 052°43'0 0.0
2018-Aug-08 22:50N 47°33' W 052°43'0 0.0
2018-Aug-08 20:48N 47°33' W 052°43'0 0.0
2018-Aug-08 20:14N 47°33' W 052°43'0 0.0
2018-Aug-08 19:57N 47°33' W 052°43'0 0.0
2018-Aug-08 19:29N 47°33' W 052°43'0 0.0
2018-Aug-08 18:59N 47°33' W 052°43'0 0.0
2018-Aug-08 18:27N 47°33' W 052°43'0 0.0
2018-Aug-08 18:00N 47°33' W 052°43'0 0.0
2018-Aug-08 17:29N 47°33' W 052°43'0 0.0
2018-Aug-08 16:49N 47°33' W 052°43'0 0.0
2018-Aug-08 16:29N 47°33' W 052°43'0 0.0
2018-Aug-08 15:59N 47°33' W 052°43'0 0.0
2018-Aug-08 15:29N 47°33' W 052°43'0 0.0
2018-Aug-08 14:58N 47°33' W 052°43'0 0.0
2018-Aug-08 14:27N 47°33' W 052°43'0 0.0
2018-Aug-08 13:55N 47°33' W 052°43'0 0.0
2018-Aug-08 13:30N 47°33' W 052°43'0 0.0
2018-Aug-08 13:00N 47°33' W 052°43'0 0.0
2018-Aug-08 12:24N 47°33' W 052°43'0 0.0
2018-Aug-08 11:49N 47°33' W 052°43'0 0.0
2018-Aug-08 11:29N 47°33' W 052°43'0 0.0
2018-Aug-08 10:59N 47°33' W 052°43'0 0.0
2018-Aug-08 10:29N 47°33' W 052°43'0 0.0
2018-Aug-08 09:59N 47°33' W 052°43'0 0.0
2018-Aug-08 09:29N 47°33' W 052°43'0 0.0
2018-Aug-08 08:59N 47°33' W 052°43'0 0.0
2018-Aug-08 08:29N 47°33' W 052°43'0 0.0
2018-Aug-08 07:59N 47°33' W 052°43'0 0.0
2018-Aug-08 07:29N 47°33' W 052°43'0 0.0
2018-Aug-08 06:59N 47°33' W 052°43'0 0.0
2018-Aug-08 06:29N 47°33' W 052°43'0 0.0
2018-Aug-08 05:59N 47°33' W 052°43'0 0.0
2018-Aug-08 05:29N 47°33' W 052°43'0 0.0
2018-Aug-08 04:58N 47°33' W 052°43'0 0.0
2018-Aug-08 04:28N 47°33' W 052°43'0 0.0
2018-Aug-08 03:58N 47°33' W 052°43'0 0.0
2018-Aug-08 03:28N 47°33' W 052°43'0 0.0
2018-Aug-08 02:58N 47°33' W 052°43'0 0.0
2018-Aug-08 02:28N 47°33' W 052°43'0 0.0
2018-Aug-08 01:58N 47°33' W 052°43'0 0.0
2018-Aug-08 01:28N 47°33' W 052°43'0 0.0
2018-Aug-08 00:58N 47°33' W 052°43'0 0.0
2018-Aug-08 00:27N 47°33' W 052°43'0 0.0
2018-Aug-07 23:57N 47°33' W 052°43'0 0.0
2018-Aug-07 23:27N 47°33' W 052°43'0 0.0
2018-Aug-07 22:56N 47°33' W 052°43'0 0.0
2018-Aug-07 22:26N 47°33' W 052°43'0 0.0
2018-Aug-07 21:55N 47°33' W 052°43'0 0.0
2018-Aug-07 21:30N 47°33' W 052°43'0 0.0
2018-Aug-07 20:59N 47°33' W 052°43'0 0.0
2018-Aug-07 20:27N 47°33' W 052°43'0 0.0
2018-Aug-07 19:56N 47°33' W 052°43'0 0.0
2018-Aug-07 19:26N 47°33' W 052°43'0 0.0
2018-Aug-07 18:56N 47°33' W 052°43'0 0.0
2018-Aug-07 18:26N 47°33' W 052°43'0 0.0
2018-Aug-07 18:00N 47°33' W 052°43'0 0.0
2018-Aug-07 17:29N 47°33' W 052°43'0 0.0
2018-Aug-07 16:59N 47°33' W 052°43'0 0.0
2018-Aug-07 16:28N 47°33' W 052°43'0 0.0
2018-Aug-07 15:57N 47°33' W 052°43'0 0.0
2018-Aug-07 15:26N 47°33' W 052°43'0 0.0
2018-Aug-07 15:00N 47°33' W 052°43'0 0.0
2018-Aug-07 14:30N 47°33' W 052°43'0 0.0
2018-Aug-07 14:00N 47°33' W 052°43'0 0.0
2018-Aug-07 13:29N 47°33' W 052°43'0 0.0
2018-Aug-07 12:57N 47°33' W 052°43'0 0.0
2018-Aug-07 12:26N 47°33' W 052°43'0 0.0
2018-Aug-07 11:57N 47°33' W 052°43'0 0.0
2018-Aug-07 11:27N 47°33' W 052°43'0 0.0
2018-Aug-07 10:56N 47°33' W 052°43'0 0.0
2018-Aug-07 10:26N 47°33' W 052°43'0 0.0
2018-Aug-07 10:00N 47°33' W 052°43'0 0.0
2018-Aug-07 09:30N 47°33' W 052°43'0 0.0
2018-Aug-07 08:59N 47°33' W 052°43'0 0.0
2018-Aug-07 08:29N 47°33' W 052°43'0 0.0
2018-Aug-07 07:59N 47°33' W 052°43'0 0.0
2018-Aug-07 07:28N 47°33' W 052°43'0 0.0
2018-Aug-07 06:58N 47°33' W 052°43'0 0.0
2018-Aug-07 06:28N 47°33' W 052°43'0 0.0
2018-Aug-07 05:58N 47°33' W 052°43'0 0.0
2018-Aug-07 05:27N 47°33' W 052°43'0 0.0
2018-Aug-07 04:57N 47°33' W 052°43'0 0.0
2018-Aug-07 04:26N 47°33' W 052°43'0 0.0
2018-Aug-07 03:56N 47°33' W 052°43'0 0.0
2018-Aug-07 03:30N 47°33' W 052°43'0 0.0
2018-Aug-07 03:00N 47°33' W 052°43'0 0.0
2018-Aug-07 02:30N 47°33' W 052°43'0 0.0
2018-Aug-07 01:59N 47°33' W 052°43'0 0.0
2018-Aug-07 01:29N 47°33' W 052°43'0 0.0
2018-Aug-07 00:58N 47°33' W 052°43'0 0.0
2018-Aug-07 00:23N 47°33' W 052°43'0 0.0
2018-Aug-06 23:57N 47°33' W 052°43'0 0.0
2018-Aug-06 23:27N 47°33' W 052°43'0 0.0
2018-Aug-06 22:56N 47°33' W 052°43'0 0.0
2018-Aug-06 22:26N 47°33' W 052°43'0 0.0
2018-Aug-06 22:00N 47°33' W 052°43'0 0.0
2018-Aug-06 21:30N 47°33' W 052°43'0 0.0
2018-Aug-06 20:58N 47°33' W 052°43'0 0.0
2018-Aug-06 20:27N 47°33' W 052°43'0 0.0
2018-Aug-06 19:57N 47°33' W 052°43'0 0.0
2018-Aug-06 19:29N 47°33' W 052°43'0 0.0
2018-Aug-06 18:57N 47°33' W 052°43'0 0.0
2018-Aug-06 18:28N 47°33' W 052°43'0 0.0
2018-Aug-06 17:55N 47°33' W 052°43'0 0.0
2018-Aug-06 17:30N 47°33' W 052°43'0 0.0
2018-Aug-06 16:58N 47°33' W 052°43'0 0.0
2018-Aug-06 16:27N 47°33' W 052°43'0 0.0
2018-Aug-06 15:56N 47°33' W 052°43'0 0.0
2018-Aug-06 15:30N 47°33' W 052°43'0 0.0
2018-Aug-06 14:59N 47°33' W 052°43'0 0.0
2018-Aug-06 14:28N 47°33' W 052°43'0 0.0
2018-Aug-06 13:57N 47°33' W 052°43'0 0.0
2018-Aug-06 13:27N 47°33' W 052°43'0 0.0
2018-Aug-06 12:56N 47°33' W 052°43'0 0.0
2018-Aug-06 12:25N 47°33' W 052°43'0 0.0
2018-Aug-06 11:59N 47°33' W 052°43'0 0.0
2018-Aug-06 11:24N 47°33' W 052°43'0 0.0
2018-Aug-06 10:59N 47°33' W 052°43'0 0.0
2018-Aug-06 10:27N 47°33' W 052°43'0 0.0
2018-Aug-06 10:00N 47°33' W 052°43'0 0.0
2018-Aug-06 09:29N 47°33' W 052°43'0 0.0
2018-Aug-06 09:01N 47°33' W 052°43'0 0.0
2018-Aug-06 08:30N 47°33' W 052°43'0 0.0
2018-Aug-06 07:59N 47°33' W 052°43'0 0.0
2018-Aug-06 07:19N 47°33' W 052°43'0 0.0
2018-Aug-06 06:58N 47°33' W 052°43'0 0.0
2018-Aug-06 06:27N 47°33' W 052°43'0 0.0
2018-Aug-06 05:57N 47°33' W 052°43'0 0.0
2018-Aug-06 05:26N 47°33' W 052°43'0 0.0
2018-Aug-06 05:00N 47°33' W 052°43'0 0.0
2018-Aug-06 04:30N 47°33' W 052°43'0 0.0
2018-Aug-06 03:59N 47°33' W 052°43'0 0.0
2018-Aug-06 03:28N 47°33' W 052°43'0 0.0
2018-Aug-06 02:58N 47°33' W 052°43'0 0.0
2018-Aug-06 02:27N 47°33' W 052°43'0 0.0
2018-Aug-06 01:57N 47°33' W 052°43'0 0.0
2018-Aug-06 01:27N 47°33' W 052°43'0 0.0
2018-Aug-06 00:56N 47°33' W 052°43'0 0.0
2018-Aug-06 00:26N 47°33' W 052°43'0 0.0
2018-Aug-06 00:00N 47°33' W 052°43'0 0.0
2018-Aug-05 23:30N 47°33' W 052°43'0 0.0
2018-Aug-05 22:59N 47°33' W 052°43'0 0.0
2018-Aug-05 22:29N 47°33' W 052°43'0 0.0
2018-Aug-05 21:58N 47°33' W 052°43'0 0.0
2018-Aug-05 21:17N 47°33' W 052°43'0 0.0
2018-Aug-05 20:57N 47°33' W 052°43'0 0.0
2018-Aug-05 20:27N 47°33' W 052°43'0 0.0
2018-Aug-05 19:57N 47°33' W 052°43'0 0.0
2018-Aug-05 19:26N 47°33' W 052°43'0 0.0
2018-Aug-05 19:00N 47°33' W 052°43'0 0.0
2018-Aug-05 18:30N 47°33' W 052°43'0 0.0
2018-Aug-05 18:00N 47°33' W 052°43'0 0.0
2018-Aug-05 17:29N 47°33' W 052°43'0 0.0
2018-Aug-05 16:58N 47°33' W 052°43'0 0.0
2018-Aug-05 16:28N 47°33' W 052°43'0 0.0
2018-Aug-05 15:57N 47°33' W 052°43'0 0.0
2018-Aug-05 15:26N 47°33' W 052°43'0 0.0
2018-Aug-05 14:56N 47°33' W 052°43'0 0.0
2018-Aug-05 13:58N 47°33' W 052°43'0 0.0
2018-Aug-05 13:28N 47°33' W 052°43'0 0.0
2018-Aug-05 12:57N 47°33' W 052°43'0 0.0
2018-Aug-05 12:27N 47°33' W 052°43'0 0.0
2018-Aug-05 11:56N 47°33' W 052°43'0 0.0
2018-Aug-05 11:26N 47°33' W 052°43'0 0.0
2018-Aug-05 11:00N 47°33' W 052°43'0 0.0
2018-Aug-05 10:30N 47°33' W 052°43'0 0.0
2018-Aug-05 10:00N 47°33' W 052°43'0 0.0
2018-Aug-05 09:30N 47°33' W 052°43'0 0.0
2018-Aug-05 08:58N 47°33' W 052°43'0 0.0
2018-Aug-05 08:28N 47°33' W 052°43'0 0.0
2018-Aug-05 07:57N 47°33' W 052°43'0 0.0
2018-Aug-05 07:26N 47°33' W 052°43'0 0.0
2018-Aug-05 07:00N 47°33' W 052°43'0 0.0
2018-Aug-05 06:30N 47°33' W 052°43'0 0.0
2018-Aug-05 06:00N 47°33' W 052°43'0 0.0
2018-Aug-05 05:29N 47°33' W 052°43'0 0.0
2018-Aug-05 04:59N 47°33' W 052°43'0 0.0
2018-Aug-05 04:29N 47°33' W 052°43'0 0.0
2018-Aug-05 03:58N 47°33' W 052°43'0 0.0
2018-Aug-05 03:27N 47°33' W 052°43'0 0.0
2018-Aug-05 02:57N 47°33' W 052°43'0 0.0
2018-Aug-05 02:27N 47°33' W 052°43'0 0.0
2018-Aug-05 01:56N 47°33' W 052°43'0 0.0
2018-Aug-05 01:26N 47°33' W 052°43'0 0.0
2018-Aug-05 01:00N 47°33' W 052°43'0 0.0
2018-Aug-05 00:30N 47°33' W 052°43'0 0.0
2018-Aug-04 23:59N 47°33' W 052°43'0 0.0
2018-Aug-04 23:29N 47°33' W 052°43'0 0.0
2018-Aug-04 22:59N 47°33' W 052°43'0 0.0
2018-Aug-04 22:28N 47°33' W 052°43'0 0.0
2018-Aug-04 21:58N 47°33' W 052°43'0 0.0
2018-Aug-04 21:27N 47°33' W 052°43'0 0.0
2018-Aug-04 20:56N 47°33' W 052°43'0 0.0
2018-Aug-04 20:26N 47°33' W 052°43'0 0.0
2018-Aug-04 20:00N 47°33' W 052°43'0 0.0
2018-Aug-04 19:28N 47°33' W 052°43'0 0.0
2018-Aug-04 18:56N 47°33' W 052°43'0 0.0
2018-Aug-04 18:29N 47°33' W 052°43'0 0.0
2018-Aug-04 17:57N 47°33' W 052°43'0 0.0
2018-Aug-04 17:16N 47°33' W 052°43'0 0.0
2018-Aug-04 16:56N 47°33' W 052°43'0 0.0
2018-Aug-04 16:30N 47°33' W 052°43'0 0.0
2018-Aug-04 16:00N 47°33' W 052°43'0 0.0
2018-Aug-04 15:29N 47°33' W 052°43'0 0.0
2018-Aug-04 14:58N 47°33' W 052°43'0 0.0
2018-Aug-04 14:26N 47°33' W 052°43'0 0.0
2018-Aug-04 14:00N 47°33' W 052°43'0 0.0
2018-Aug-04 13:30N 47°33' W 052°43'0 0.0
2018-Aug-04 12:58N 47°33' W 052°43'0 0.0
2018-Aug-04 12:24N 47°33' W 052°43'0 0.0
2018-Aug-04 11:56N 47°33' W 052°43'0 0.0
2018-Aug-04 11:24N 47°33' W 052°43'0 0.0
2018-Aug-04 10:59N 47°33' W 052°43'0 0.0
2018-Aug-04 10:28N 47°33' W 052°43'0 0.0
2018-Aug-04 09:57N 47°33' W 052°43'0 0.0
2018-Aug-04 09:26N 47°33' W 052°43'0 0.0
2018-Aug-04 09:00N 47°33' W 052°43'0 0.0
2018-Aug-04 08:29N 47°33' W 052°43'0 0.0
2018-Aug-04 07:59N 47°33' W 052°43'0 0.0
2018-Aug-04 07:29N 47°33' W 052°43'0 0.0
2018-Aug-04 06:58N 47°33' W 052°43'0 0.0
2018-Aug-04 06:28N 47°33' W 052°43'0 0.0
2018-Aug-04 05:57N 47°33' W 052°43'0 0.0
2018-Aug-04 05:27N 47°33' W 052°43'0 0.0
2018-Aug-04 04:57N 47°33' W 052°43'0 0.0
2018-Aug-04 04:26N 47°33' W 052°43'0 0.0
2018-Aug-04 03:56N 47°33' W 052°43'0 0.0
2018-Aug-04 03:30N 47°33' W 052°43'0 0.0
2018-Aug-04 03:00N 47°33' W 052°43'0 0.0
2018-Aug-04 02:30N 47°33' W 052°43'0 0.0
2018-Aug-04 01:59N 47°33' W 052°43'0 0.0
2018-Aug-04 01:29N 47°33' W 052°43'0 0.0
2018-Aug-04 00:58N 47°33' W 052°43'0 0.0
2018-Aug-04 00:27N 47°33' W 052°43'0 0.0
2018-Aug-03 23:57N 47°33' W 052°43'0 0.0
2018-Aug-03 23:26N 47°33' W 052°43'0 0.0
2018-Aug-03 22:56N 47°33' W 052°43'0 0.0
2018-Aug-03 22:30N 47°33' W 052°43'0 0.0
2018-Aug-03 22:00N 47°33' W 052°43'0 0.0
2018-Aug-03 21:29N 47°33' W 052°43'0 0.0
2018-Aug-03 20:59N 47°33' W 052°43'0 0.0
2018-Aug-03 20:28N 47°33' W 052°43'0 0.0
2018-Aug-03 19:58N 47°33' W 052°43'0 0.0
2018-Aug-03 19:27N 47°33' W 052°43'0 0.0
2018-Aug-03 18:56N 47°33' W 052°43'0 0.0
2018-Aug-03 18:26N 47°33' W 052°43'0 0.0
2018-Aug-03 18:00N 47°33' W 052°43'0 0.0
2018-Aug-03 17:29N 47°33' W 052°43'0 0.0
2018-Aug-03 16:59N 47°33' W 052°43'0 0.0
2018-Aug-03 16:29N 47°33' W 052°43'0 0.0
2018-Aug-03 15:58N 47°33' W 052°43'0 0.0
2018-Aug-03 15:28N 47°33' W 052°43'0 0.0
2018-Aug-03 14:57N 47°33' W 052°43'0 0.0
2018-Aug-03 14:27N 47°33' W 052°43'0 0.0
2018-Aug-03 13:57N 47°33' W 052°43'0 0.0
2018-Aug-03 13:26N 47°33' W 052°43'0 0.0
2018-Aug-03 13:00N 47°33' W 052°43'0 0.0
2018-Aug-03 12:29N 47°33' W 052°43'0 0.0
2018-Aug-03 11:59N 47°33' W 052°43'0 0.0
2018-Aug-03 11:29N 47°33' W 052°43'0 0.0
2018-Aug-03 10:58N 47°33' W 052°43'0 0.0
2018-Aug-03 10:27N 47°33' W 052°43'0 0.0
2018-Aug-03 09:57N 47°33' W 052°43'0 0.0
2018-Aug-03 09:27N 47°33' W 052°43'0 0.0
2018-Aug-03 08:57N 47°33' W 052°43'0 0.0
2018-Aug-03 08:26N 47°33' W 052°43'0 0.0
2018-Aug-03 07:56N 47°33' W 052°43'0 0.0
2018-Aug-03 07:26N 47°33' W 052°43'0 0.0
2018-Aug-03 07:00N 47°33' W 052°43'0 0.0
2018-Aug-03 06:30N 47°33' W 052°43'0 0.0
2018-Aug-03 06:00N 47°33' W 052°43'0 0.0
2018-Aug-03 05:29N 47°33' W 052°43'0 0.0
2018-Aug-03 04:59N 47°33' W 052°43'0 0.0
2018-Aug-03 04:29N 47°33' W 052°43'0 0.0
2018-Aug-03 03:57N 47°33' W 052°43'0 0.0
2018-Aug-03 03:26N 47°33' W 052°43'0 0.0
2018-Aug-03 02:59N 47°33' W 052°43'0 0.0
2018-Aug-03 02:28N 47°33' W 052°43'0 0.0
2018-Aug-03 01:56N 47°33' W 052°43'0 0.0
2018-Aug-03 01:30N 47°33' W 052°43'0 0.0
2018-Aug-03 00:59N 47°33' W 052°43'0 0.0
2018-Aug-03 00:30N 47°33' W 052°43'0 0.0
2018-Aug-02 23:56N 47°33' W 052°43'0 0.0
2018-Aug-02 23:23N 47°33' W 052°43'0 0.0
2018-Aug-02 22:56N 47°33' W 052°43'0 0.0
2018-Aug-02 22:27N 47°33' W 052°43'0 0.0
2018-Aug-02 21:59N 47°33' W 052°43'0 0.0
2018-Aug-02 21:28N 47°33' W 052°43'0 0.0
2018-Aug-02 20:56N 47°33' W 052°43'0 0.0
2018-Aug-02 20:27N 47°33' W 052°43'0 0.0
2018-Aug-02 19:57N 47°33' W 052°43'0 0.0
2018-Aug-02 19:26N 47°33' W 052°43'0 0.0
2018-Aug-02 18:55N 47°33' W 052°43'0 0.0
2018-Aug-02 18:20N 47°33' W 052°43'0 0.0
2018-Aug-02 17:51N 47°33' W 052°43'0 0.0
2018-Aug-02 17:27N 47°33' W 052°43'0 0.0
2018-Aug-02 16:58N 47°33' W 052°43'0 0.0
2018-Aug-02 16:30N 47°33' W 052°43'0 0.0
2018-Aug-02 15:59N 47°33' W 052°43'0 0.0
2018-Aug-02 15:26N 47°33' W 052°43'0 0.0
2018-Aug-02 15:00N 47°33' W 052°43'0 0.0
2018-Aug-02 14:28N 47°33' W 052°43'0 0.0
2018-Aug-02 13:56N 47°33' W 052°43'0 0.0
2018-Aug-02 13:30N 47°33' W 052°43'0 0.0
2018-Aug-02 12:58N 47°33' W 052°43'0 0.0
2018-Aug-02 12:27N 47°33' W 052°43'0 0.0
2018-Aug-02 11:57N 47°33' W 052°43'0 0.0
2018-Aug-02 11:27N 47°33' W 052°43'0 0.0
2018-Aug-02 10:56N 47°33' W 052°43'0 0.0
2018-Aug-02 10:26N 47°33' W 052°43'0 0.0
2018-Aug-02 10:00N 47°33' W 052°43'0 0.0
2018-Aug-02 09:29N 47°33' W 052°43'0 0.0
2018-Aug-02 08:59N 47°33' W 052°43'0 0.0
2018-Aug-02 08:29N 47°33' W 052°43'0 0.0
2018-Aug-02 07:59N 47°33' W 052°43'0 0.0
2018-Aug-02 07:29N 47°33' W 052°43'0 0.0
2018-Aug-02 06:59N 47°33' W 052°43'0 0.0
2018-Aug-02 06:29N 47°33' W 052°43'0 0.0
2018-Aug-02 05:59N 47°33' W 052°43'0 0.0
2018-Aug-02 05:29N 47°33' W 052°43'0 0.0
2018-Aug-02 04:59N 47°33' W 052°43'0 0.0
2018-Aug-02 04:29N 47°33' W 052°43'0 0.0
2018-Aug-02 03:59N 47°33' W 052°43'0 0.0
2018-Aug-02 03:28N 47°33' W 052°43'0 0.0
2018-Aug-02 02:58N 47°33' W 052°43'0 0.0
2018-Aug-02 02:28N 47°33' W 052°43'0 0.0
2018-Aug-02 01:58N 47°33' W 052°43'0 0.0
2018-Aug-02 01:28N 47°33' W 052°43'0 0.0
2018-Aug-02 00:58N 47°33' W 052°43'0 0.0
2018-Aug-02 00:27N 47°33' W 052°43'0 0.0
2018-Aug-01 23:57N 47°33' W 052°43'0 0.0
2018-Aug-01 23:26N 47°33' W 052°43'0 0.0
2018-Aug-01 22:56N 47°33' W 052°43'0 0.0
2018-Aug-01 22:30N 47°33' W 052°43'0 0.0
2018-Aug-01 22:00N 47°33' W 052°43'0 0.0
2018-Aug-01 21:30N 47°33' W 052°43'0 0.0
2018-Aug-01 21:00N 47°33' W 052°43'0 0.0
2018-Aug-01 20:29N 47°33' W 052°43'0 0.0
2018-Aug-01 19:59N 47°33' W 052°43'0 0.0
2018-Aug-01 19:28N 47°33' W 052°43'0 0.0
2018-Aug-01 18:58N 47°33' W 052°43'0 0.0
2018-Aug-01 18:27N 47°33' W 052°43'0 0.0
2018-Aug-01 17:56N 47°33' W 052°43'0 0.0
2018-Aug-01 17:26N 47°33' W 052°43'0 0.0
2018-Aug-01 17:00N 47°33' W 052°43'0 0.0
2018-Aug-01 16:30N 47°33' W 052°43'0 0.0
2018-Aug-01 16:00N 47°33' W 052°43'0 0.0
2018-Aug-01 15:30N 47°33' W 052°43'0 0.0
2018-Aug-01 14:59N 47°33' W 052°43'0 0.0
2018-Aug-01 13:58N 47°33' W 052°43'0 0.0
2018-Aug-01 13:27N 47°33' W 052°43'0 0.0
2018-Aug-01 12:57N 47°33' W 052°43'0 0.3
2018-Aug-01 12:28N 47°33' W 052°43'0 0.1
2018-Aug-01 11:56N 47°33' W 052°43'0 0.0
2018-Aug-01 11:26N 47°33' W 052°43'0 0.0
2018-Aug-01 11:00N 47°33' W 052°43'0 0.0
2018-Aug-01 10:30N 47°33' W 052°43'0 0.0
2018-Aug-01 10:00N 47°33' W 052°43'0 0.0
2018-Aug-01 09:30N 47°33' W 052°43'0 0.0
2018-Aug-01 09:00N 47°33' W 052°43'0 0.0
2018-Aug-01 08:30N 47°33' W 052°43'0 0.0
2018-Aug-01 07:59N 47°33' W 052°43'0 0.0
2018-Aug-01 07:29N 47°33' W 052°43'0 0.0
2018-Aug-01 06:59N 47°33' W 052°43'0 0.0
2018-Aug-01 06:29N 47°33' W 052°43'0 0.0
2018-Aug-01 05:59N 47°33' W 052°43'0 0.0
2018-Aug-01 05:28N 47°33' W 052°43'0 0.0
2018-Aug-01 04:57N 47°33' W 052°43'0 0.0
2018-Aug-01 04:27N 47°33' W 052°43'0 0.0
2018-Aug-01 03:57N 47°33' W 052°43'0 0.0
2018-Aug-01 03:26N 47°33' W 052°43'0 0.0
2018-Aug-01 02:56N 47°33' W 052°43'0 0.0
2018-Aug-01 02:26N 47°33' W 052°43'0 0.0
2018-Aug-01 01:56N 47°33' W 052°43'0 0.0
2018-Aug-01 01:26N 47°33' W 052°43'0 0.0
2018-Aug-01 00:56N 47°33' W 052°43'0 0.2
2018-Jul-31 22:28N 47°34' W 052°42'0 0.1
2018-Jul-31 21:58N 47°34' W 052°42'0 0.0
2018-Jul-31 21:28N 47°34' W 052°42'0 0.0
2018-Jul-31 20:58N 47°34' W 052°42'0 0.0
2018-Jul-31 20:26N 47°34' W 052°42'0 0.0
2018-Jul-31 19:56N 47°34' W 052°42'0 0.0
2018-Jul-31 19:30N 47°34' W 052°42'0 0.0
2018-Jul-31 19:00N 47°34' W 052°42'0 0.0
2018-Jul-31 18:24N 47°34' W 052°42'0 0.0
2018-Jul-31 17:59N 47°34' W 052°42'0 0.0
2018-Jul-31 17:28N 47°34' W 052°42'0 0.6
2018-Jul-31 16:57N 47°34' W 052°42'0 0.0
2018-Jul-31 16:23N 47°34' W 052°42'0 0.0
2018-Jul-31 15:47N 47°34' W 052°42'0 0.0
2018-Jul-31 15:15N 47°34' W 052°42'0 0.0
2018-Jul-31 15:00N 47°34' W 052°42'0 0.0
2018-Jul-31 14:29N 47°34' W 052°42'0 0.0
2018-Jul-31 10:58N 47°34' W 052°42'4 8.7
2018-Jul-31 10:27N 47°33' W 052°35'810.8
2018-Jul-31 09:42N 47°31' W 052°24'  

Dump ship's entire track history